• Join FlightAware (Why Join?)
  • Login
  • US Flag 
03:47AM EDT


 

Airport Tracker/Info


-or-


 

Live Flight TrackerFlight Track Log ✈ UAL481 ✈ 16-Aug-2013 ✈ KALB - KORD

Flight Track Log - Related Links

Times and Time Zones

All times are in EDT time to prevent confusion due to time zone crossing. See the UAL481 flight status page for this flight to view local times or setup timezone preferences in your user account.

Time Position Orientation Groundspeed Altitude Reporting Facility
EDT Latitude Longitude Course Direction KTS MPH feet Rate Location/Type
05:54PM 42.7694 -73.8089 283° West 165 190 1,500  Level Boston Center
05:56PM 42.7833 -74.0464 270° West  Level FlightAware Approximate
05:56PM 42.8483 -73.8306 349° North 226 260 4,800  Level Boston Center
05:56PM 42.8894 -73.8797 319° Northwest 258 297 6,800 3,120 Climbing Boston Center
05:57PM 42.8041 -74.1725 284° West  Level FlightAware Approximate
05:57PM 42.9447 -73.9492 317° Northwest 266 306 10,600  Level Boston Center
05:58PM 42.8270 -74.2986 284° West  Level FlightAware Approximate
05:58PM 43.0083 -74.0300 317° Northwest 292 336 11,700  Level Boston Center
05:59PM 42.8487 -74.4251 283° West  Level FlightAware Approximate
05:59PM 43.0819 -74.1172 319° Northwest 344 396 14,900  Level Boston Center
06:00PM 43.1178 -74.2433 291° West 351 404 17,000 2,100 Climbing Boston Center
06:01PM 43.1153 -74.3856 269° West 362 417 19,100 2,100 Climbing Boston Center
06:02PM 43.1189 -74.5336 272° West 375 432 21,200 1,920 Climbing Boston Center
06:03PM 43.1244 -74.6847 273° West 388 447 23,100 1,800 Climbing Boston Center
06:04PM 43.1297 -74.8356 273° West 398 458 24,900 1,680 Climbing Boston Center
06:05PM 43.1306 -74.9864 270° West 403 464 26,500 1,440 Climbing Boston Center
06:06PM 43.1311 -75.1486 270° West 409 471 27,800 1,140 Climbing Boston Center
06:07PM 43.1317 -75.2911 270° West 414 476 28,800 1,200 Climbing Boston Center
06:08PM 43.1339 -75.4506 271° West 424 488 30,300 1,560 Climbing Boston Center
06:09PM 43.1358 -75.6069 271° West 424 488 32,000 1,620 Climbing Boston Center
06:10PM 43.1356 -75.7636 270° West 419 482 33,600 960 Climbing Boston Center
06:11PM 43.1394 -75.9147 272° West 414 476 33,900 300 Climbing Boston Center
06:12PM 43.1389 -76.0656 270° West 408 470 34,300 360 Climbing Boston Center
06:16PM 43.1381 -76.6681 270° West 390 449 35,900 300 Climbing Cleveland Center
06:17PM 43.1361 -76.8019 269° West 390 449 36,000  Climbing Cleveland Center
06:18PM 43.1369 -76.9528 270° West 390 449 36,000  Level Cleveland Center
06:19PM 43.1353 -77.1036 269° West 395 455 36,000  Level Cleveland Center
06:20PM 43.1356 -77.2572 270° West 400 460 36,000  Level Cleveland Center
06:21PM 43.1317 -77.4083 268° West 405 466 36,000  Level Cleveland Center
06:22PM 43.1314 -77.5592 270° West 405 466 36,000  Level Cleveland Center
06:23PM 43.1311 -77.7156 270° West 405 466 36,000  Level Cleveland Center
06:24PM 43.1286 -77.8664 269° West 405 466 36,000 -540 Level Cleveland Center
06:25PM 43.1261 -78.0344 269° West 410 472 35,000 -1,020 Descending Cleveland Center
06:26PM 43.1253 -78.1881 270° West 410 472 34,000 -540 Descending Cleveland Center
06:27PM 43.1222 -78.3447 269° West 410 472 34,000  Level Cleveland Center
06:28PM 43.1189 -78.4983 268° West 405 466 34,000  Level Cleveland Center
06:29PM 43.1153 -78.6550 268° West 405 466 34,000  Level Cleveland Center
06:30PM 43.1136 -78.8114 269° West 405 466 34,000  Level Cleveland Center
06:31PM 43.1000 -78.8833 255° West 410 472 34,000  Level Toronto Center
06:32PM 43.1000 -79.0333 270° West 410 472 34,000  Level Toronto Center
06:33PM 43.1000 -79.2000 270° West 410 472 34,000  Level Toronto Center
06:34PM 43.0833 -79.3333 260° West 410 472 34,000  Level Toronto Center
06:35PM 43.0833 -79.5000 270° West 410 472 34,000  Level Toronto Center
06:36PM 43.0833 -79.6500 270° West 410 472 34,000  Level Toronto Center
06:37PM 43.0833 -79.8167 270° West 410 472 34,000  Level Toronto Center
06:38PM 43.0667 -79.9833 262° West 410 472 34,000  Level Toronto Center
06:39PM 43.0667 -80.1333 270° West 420 483 34,000  Level Toronto Center
06:40PM 43.0667 -80.3000 270° West 420 483 34,000  Level Toronto Center
06:41PM 43.0500 -80.4500 261° West 420 483 34,000  Level Toronto Center
06:42PM 43.0500 -80.6167 270° West 420 483 34,000  Level Toronto Center
06:43PM 43.0500 -80.7667 270° West 420 483 34,000  Level Toronto Center
06:44PM 43.0333 -80.9167 261° West 420 483 34,000  Level Toronto Center
06:45PM 43.0167 -81.1000 263° West 420 483 34,000  Level Toronto Center
06:46PM 43.0167 -81.2333 270° West 420 483 34,000  Level Toronto Center
06:47PM 43.0167 -81.4167 270° West 420 483 34,000  Level Toronto Center
06:48PM 43.0167 -81.5667 270° West 420 483 34,000  Level Toronto Center
06:49PM 43.0167 -81.7333 270° West 420 483 34,000  Level Toronto Center
06:50PM 43.0167 -81.8833 270° West 420 483 34,000  Level Toronto Center
06:51PM 43.0000 -82.0500 262° West 420 483 34,000  Level Toronto Center
06:52PM 43.0000 -82.2167 270° West 420 483 34,000  Level Toronto Center
06:53PM 43.0000 -82.3667 270° West 420 483 34,000  Level Toronto Center
06:54PM 43.0167 -82.5000 280° West 400 460 34,000 -180 Level Toronto Center
06:55PM 43.0333 -82.6667 278° West 400 460 33,700 -540 Descending Toronto Center
06:55PM 43.0672 -82.7458 300° West 408 470 33,200 -1,020 Descending Cleveland Center
06:56PM 43.0894 -82.8944 282° West 408 470 32,100 -600 Descending Cleveland Center
06:57PM 43.0694 -83.0444 260° West 401 461 32,000 -60 Descending Cleveland Center
06:58PM 43.0475 -83.1969 259° West 406 467 32,000  Level Cleveland Center
06:59PM 43.0231 -83.3492 258° West 406 467 32,000  Level Cleveland Center
07:00PM 43.0025 -83.5044 260° West 411 473 32,000  Level Cleveland Center
07:01PM 42.9778 -83.6539 257° West 411 473 32,000  Level Cleveland Center
07:02PM 42.9592 -83.8061 261° West 411 473 32,000  Level Cleveland Center
07:03PM 42.9439 -83.9756 263° West 411 473 32,000  Level Cleveland Center
07:04PM 42.9289 -84.1278 262° West 411 473 32,000  Level Cleveland Center
07:05PM 42.9136 -84.2800 262° West 406 467 32,000  Level Cleveland Center
07:06PM 42.9014 -84.4156 263° West 408 470 32,000  Level Chicago Center
07:07PM 42.8858 -84.5694 262° West 410 472 32,000  Level Chicago Center
07:08PM 42.8697 -84.7231 262° West 410 472 32,000  Level Chicago Center
07:09PM 42.8533 -84.8767 262° West 412 474 32,000  Level Chicago Center
07:11PM 42.8372 -85.0297 262° West 410 472 32,000 -60 Level Chicago Center
07:12PM 42.8169 -85.2153 262° West 413 475 31,900 -1,020 Descending Chicago Center
07:13PM 42.8003 -85.3692 262° West 410 472 30,000 -960 Descending Chicago Center
07:14PM 42.7814 -85.5275 261° West 418 481 30,000  Level Chicago Center
07:15PM 42.7531 -85.6833 256° West 421 484 30,000 -840 Level Chicago Center
07:16PM 42.7242 -85.8381 256° West 419 482 28,300 -2,400 Descending Chicago Center
07:17PM 42.6964 -85.9967 257° West 425 489 25,100 -2,760 Descending Chicago Center
07:18PM 42.6672 -86.1531 256° West 426 490 22,700 -2,580 Descending Chicago Center
07:19PM 42.6336 -86.3306 256° West 405 466 19,800 -2,040 Descending Chicago Center
07:20PM 42.6056 -86.4761 255° West 398 458 18,500 -1,200 Descending Chicago Center
07:21PM 42.5775 -86.6203 255° West 396 456 17,400 -1,200 Descending Chicago Center
07:22PM 42.5517 -86.7644 256° West 393 452 16,100 -1,260 Descending Chicago Center
07:23PM 42.5142 -86.8986 249° West 383 441 14,800 -1,320 Descending Chicago Center
07:24PM 42.4775 -87.0339 250° West 383 441 13,400 -1,800 Descending Chicago Center
07:25PM 42.4339 -87.1875 249° West 365 420 11,200 -1,680 Descending Chicago Center
07:26PM 42.3997 -87.3133 250° West 359 413 10,000 -600 Descending Chicago Center
07:27PM 42.3667 -87.4306 249° West 353 406 10,000  Level Chicago Center
07:28PM 42.3275 -87.5514 246° West 356 410 10,000  Level Chicago Center
07:29PM 42.2342 -87.6461 217° Southwest 350 403 10,000 -60 Level Chicago Center
07:30PM 42.1675 -87.7156 218° Southwest 307 353 9,900 -780 Descending Chicago Center
07:31PM 42.1033 -87.7819 218° Southwest 294 338 8,400 -1,440 Descending Chicago Center
07:32PM 42.0914 -87.8836 261° West 292 336 7,000 -720 Descending Chicago Center
07:33PM 42.0914 -87.9842 270° West 273 314 7,000 -420 Level Chicago Center
07:34PM 42.0725 -88.0608 252° West 213 245 6,200 -1,620 Descending Chicago Center
07:35PM 42.0181 -88.0631 182° South 196 226 3,700 -2,040 Descending Chicago Center
07:36PM 41.9864 -88.0211 135° Southeast 177 204 2,100 -1,140 Descending Chicago Center
07:38PM 41.9833 -87.9500 93° East 125 144 1,200 -780 Descending Chicago TRACON